sensor_id;sensor_type;location;lat;lon;timestamp;P1;durP1;ratioP1;P2;durP2;ratioP2
54871;SDS011;43914;57.680;11.982;2022-09-13T00:01:01;10.95;;;4.12;;
54871;SDS011;43914;57.680;11.982;2022-09-13T00:03:28;10.05;;;3.92;;
54871;SDS011;43914;57.680;11.982;2022-09-13T00:05:54;9.93;;;3.72;;
54871;SDS011;43914;57.680;11.982;2022-09-13T00:08:21;15.23;;;4.40;;
54871;SDS011;43914;57.680;11.982;2022-09-13T00:10:47;11.12;;;4.15;;
54871;SDS011;43914;57.680;11.982;2022-09-13T00:13:14;11.97;;;4.58;;
54871;SDS011;43914;57.680;11.982;2022-09-13T00:15:46;10.35;;;4.22;;
54871;SDS011;43914;57.680;11.982;2022-09-13T00:18:14;11.35;;;4.67;;
54871;SDS011;43914;57.680;11.982;2022-09-13T00:20:42;13.53;;;4.33;;
54871;SDS011;43914;57.680;11.982;2022-09-13T00:23:08;12.73;;;4.90;;
54871;SDS011;43914;57.680;11.982;2022-09-13T00:25:35;9.10;;;3.77;;
54871;SDS011;43914;57.680;11.982;2022-09-13T00:28:02;11.80;;;4.67;;
54871;SDS011;43914;57.680;11.982;2022-09-13T00:30:29;10.43;;;4.67;;
54871;SDS011;43914;57.680;11.982;2022-09-13T00:32:58;10.58;;;3.70;;
54871;SDS011;43914;57.680;11.982;2022-09-13T00:35:26;10.00;;;3.95;;
54871;SDS011;43914;57.680;11.982;2022-09-13T00:37:53;9.58;;;3.87;;
54871;SDS011;43914;57.680;11.982;2022-09-13T00:40:20;12.33;;;3.90;;
54871;SDS011;43914;57.680;11.982;2022-09-13T00:42:46;10.90;;;4.03;;
54871;SDS011;43914;57.680;11.982;2022-09-13T00:45:16;11.03;;;3.87;;
54871;SDS011;43914;57.680;11.982;2022-09-13T00:50:19;10.50;;;3.87;;
54871;SDS011;43914;57.680;11.982;2022-09-13T00:55:45;10.75;;;3.52;;
54871;SDS011;43914;57.680;11.982;2022-09-13T01:01:13;10.35;;;3.50;;
54871;SDS011;43914;57.680;11.982;2022-09-13T01:03:41;9.83;;;3.40;;
54871;SDS011;43914;57.680;11.982;2022-09-13T01:06:16;9.18;;;3.17;;
54871;SDS011;43914;57.680;11.982;2022-09-13T01:08:41;10.78;;;3.72;;
54871;SDS011;43914;57.680;11.982;2022-09-13T01:11:12;11.75;;;3.50;;
54871;SDS011;43914;57.680;11.982;2022-09-13T01:13:54;9.38;;;4.17;;
54871;SDS011;43914;57.680;11.982;2022-09-13T01:16:22;12.55;;;3.60;;
54871;SDS011;43914;57.680;11.982;2022-09-13T01:18:48;10.15;;;3.62;;
54871;SDS011;43914;57.680;11.982;2022-09-13T01:21:39;9.45;;;3.15;;
54871;SDS011;43914;57.680;11.982;2022-09-13T01:30:39;9.35;;;3.70;;
54871;SDS011;43914;57.680;11.982;2022-09-13T01:33:38;9.83;;;3.22;;
54871;SDS011;43914;57.680;11.982;2022-09-13T01:39:24;12.03;;;3.98;;
54871;SDS011;43914;57.680;11.982;2022-09-13T01:42:02;8.68;;;3.65;;
54871;SDS011;43914;57.680;11.982;2022-09-13T01:47:59;11.25;;;3.85;;
54871;SDS011;43914;57.680;11.982;2022-09-13T01:50:42;12.60;;;4.12;;
54871;SDS011;43914;57.680;11.982;2022-09-13T01:53:30;12.98;;;3.60;;
54871;SDS011;43914;57.680;11.982;2022-09-13T01:56:17;26.30;;;4.80;;
54871;SDS011;43914;57.680;11.982;2022-09-13T01:58:55;16.80;;;4.20;;
54871;SDS011;43914;57.680;11.982;2022-09-13T02:01:35;16.30;;;4.10;;
54871;SDS011;43914;57.680;11.982;2022-09-13T02:04:13;19.00;;;3.90;;
54871;SDS011;43914;57.680;11.982;2022-09-13T02:06:44;11.15;;;3.52;;
54871;SDS011;43914;57.680;11.982;2022-09-13T02:09:15;13.00;;;2.80;;
54871;SDS011;43914;57.680;11.982;2022-09-13T02:11:56;9.53;;;2.40;;
54871;SDS011;43914;57.680;11.982;2022-09-13T02:14:25;9.70;;;2.00;;
54871;SDS011;43914;57.680;11.982;2022-09-13T02:16:57;10.20;;;2.00;;
54871;SDS011;43914;57.680;11.982;2022-09-13T02:19:46;9.10;;;1.70;;
54871;SDS011;43914;57.680;11.982;2022-09-13T02:22:23;13.60;;;2.72;;
54871;SDS011;43914;57.680;11.982;2022-09-13T02:24:57;14.47;;;2.90;;
54871;SDS011;43914;57.680;11.982;2022-09-13T02:27:34;12.78;;;2.50;;
54871;SDS011;43914;57.680;11.982;2022-09-13T02:30:08;15.20;;;3.10;;
54871;SDS011;43914;57.680;11.982;2022-09-13T02:32:39;10.20;;;2.35;;
54871;SDS011;43914;57.680;11.982;2022-09-13T02:35:18;20.68;;;3.40;;
54871;SDS011;43914;57.680;11.982;2022-09-13T02:38:03;22.98;;;3.85;;
54871;SDS011;43914;57.680;11.982;2022-09-13T02:40:38;16.30;;;3.20;;
54871;SDS011;43914;57.680;11.982;2022-09-13T02:43:09;21.77;;;3.87;;
54871;SDS011;43914;57.680;11.982;2022-09-13T02:48:24;27.20;;;3.95;;
54871;SDS011;43914;57.680;11.982;2022-09-13T02:51:06;21.73;;;4.12;;
54871;SDS011;43914;57.680;11.982;2022-09-13T02:56:49;20.82;;;4.58;;
54871;SDS011;43914;57.680;11.982;2022-09-13T02:59:33;29.15;;;4.65;;
54871;SDS011;43914;57.680;11.982;2022-09-13T03:04:38;28.98;;;5.90;;
54871;SDS011;43914;57.680;11.982;2022-09-13T03:07:05;29.23;;;5.58;;
54871;SDS011;43914;57.680;11.982;2022-09-13T03:09:38;25.32;;;5.00;;
54871;SDS011;43914;57.680;11.982;2022-09-13T03:12:33;39.20;;;5.00;;
54871;SDS011;43914;57.680;11.982;2022-09-13T03:32:35;17.12;;;2.40;;
54871;SDS011;43914;57.680;11.982;2022-09-13T03:38:00;9.45;;;1.77;;
54871;SDS011;43914;57.680;11.982;2022-09-13T03:40:43;17.02;;;2.45;;
54871;SDS011;43914;57.680;11.982;2022-09-13T03:43:23;12.10;;;1.80;;
54871;SDS011;43914;57.680;11.982;2022-09-13T03:46:20;10.05;;;1.50;;
54871;SDS011;43914;57.680;11.982;2022-09-13T03:48:55;12.28;;;1.67;;
54871;SDS011;43914;57.680;11.982;2022-09-13T03:51:27;16.25;;;1.90;;
54871;SDS011;43914;57.680;11.982;2022-09-13T03:53:54;10.20;;;1.98;;
54871;SDS011;43914;57.680;11.982;2022-09-13T03:56:25;7.53;;;1.50;;
54871;SDS011;43914;57.680;11.982;2022-09-13T03:58:52;7.95;;;1.50;;
54871;SDS011;43914;57.680;11.982;2022-09-13T04:01:22;14.45;;;1.70;;
54871;SDS011;43914;57.680;11.982;2022-09-13T04:03:49;8.10;;;1.37;;
54871;SDS011;43914;57.680;11.982;2022-09-13T04:06:16;7.95;;;1.52;;
54871;SDS011;43914;57.680;11.982;2022-09-13T04:08:42;9.08;;;1.60;;
54871;SDS011;43914;57.680;11.982;2022-09-13T04:11:11;8.90;;;1.80;;
54871;SDS011;43914;57.680;11.982;2022-09-13T04:13:38;5.15;;;1.37;;
54871;SDS011;43914;57.680;11.982;2022-09-13T04:16:06;11.03;;;1.52;;
54871;SDS011;43914;57.680;11.982;2022-09-13T04:18:32;9.78;;;1.50;;
54871;SDS011;43914;57.680;11.982;2022-09-13T04:21:00;11.18;;;1.55;;
54871;SDS011;43914;57.680;11.982;2022-09-13T04:23:27;10.68;;;1.52;;
54871;SDS011;43914;57.680;11.982;2022-09-13T04:25:54;6.15;;;1.30;;
54871;SDS011;43914;57.680;11.982;2022-09-13T04:28:22;12.30;;;1.70;;
54871;SDS011;43914;57.680;11.982;2022-09-13T04:30:48;10.08;;;1.80;;
54871;SDS011;43914;57.680;11.982;2022-09-13T04:33:15;11.57;;;1.90;;
54871;SDS011;43914;57.680;11.982;2022-09-13T04:35:41;10.50;;;1.90;;
54871;SDS011;43914;57.680;11.982;2022-09-13T04:38:08;9.33;;;1.70;;
54871;SDS011;43914;57.680;11.982;2022-09-13T04:40:35;10.63;;;1.98;;
54871;SDS011;43914;57.680;11.982;2022-09-13T04:43:01;7.22;;;1.72;;
54871;SDS011;43914;57.680;11.982;2022-09-13T04:45:28;6.95;;;1.50;;
54871;SDS011;43914;57.680;11.982;2022-09-13T04:47:54;5.62;;;1.30;;
54871;SDS011;43914;57.680;11.982;2022-09-13T04:50:22;7.25;;;1.50;;
54871;SDS011;43914;57.680;11.982;2022-09-13T04:52:50;7.62;;;1.55;;
54871;SDS011;43914;57.680;11.982;2022-09-13T04:55:21;12.65;;;1.50;;
54871;SDS011;43914;57.680;11.982;2022-09-13T04:57:51;6.47;;;1.40;;
54871;SDS011;43914;57.680;11.982;2022-09-13T05:00:29;12.65;;;1.87;;
54871;SDS011;43914;57.680;11.982;2022-09-13T05:02:55;11.10;;;1.82;;
54871;SDS011;43914;57.680;11.982;2022-09-13T05:05:22;9.78;;;1.75;;
54871;SDS011;43914;57.680;11.982;2022-09-13T05:07:56;9.45;;;1.65;;
54871;SDS011;43914;57.680;11.982;2022-09-13T05:10:23;9.33;;;1.62;;
54871;SDS011;43914;57.680;11.982;2022-09-13T05:12:49;9.95;;;1.57;;
54871;SDS011;43914;57.680;11.982;2022-09-13T05:15:16;7.95;;;1.40;;
54871;SDS011;43914;57.680;11.982;2022-09-13T05:17:42;7.85;;;1.30;;
54871;SDS011;43914;57.680;11.982;2022-09-13T05:20:09;8.60;;;1.45;;
54871;SDS011;43914;57.680;11.982;2022-09-13T05:22:35;7.42;;;1.40;;
54871;SDS011;43914;57.680;11.982;2022-09-13T05:25:02;6.72;;;1.10;;
54871;SDS011;43914;57.680;11.982;2022-09-13T05:27:32;9.53;;;1.50;;
54871;SDS011;43914;57.680;11.982;2022-09-13T05:29:58;7.85;;;1.22;;
54871;SDS011;43914;57.680;11.982;2022-09-13T05:32:30;5.17;;;1.00;;
54871;SDS011;43914;57.680;11.982;2022-09-13T05:34:57;9.70;;;1.55;;
54871;SDS011;43914;57.680;11.982;2022-09-13T05:37:23;14.13;;;1.55;;
54871;SDS011;43914;57.680;11.982;2022-09-13T05:39:49;6.67;;;1.60;;
54871;SDS011;43914;57.680;11.982;2022-09-13T05:42:16;6.90;;;1.52;;
54871;SDS011;43914;57.680;11.982;2022-09-13T05:44:42;10.35;;;1.50;;
54871;SDS011;43914;57.680;11.982;2022-09-13T05:47:08;8.38;;;1.45;;
54871;SDS011;43914;57.680;11.982;2022-09-13T05:49:38;9.83;;;1.57;;
54871;SDS011;43914;57.680;11.982;2022-09-13T05:52:04;10.20;;;1.60;;
54871;SDS011;43914;57.680;11.982;2022-09-13T05:54:30;11.55;;;1.80;;
54871;SDS011;43914;57.680;11.982;2022-09-13T05:56:58;12.90;;;1.80;;
54871;SDS011;43914;57.680;11.982;2022-09-13T05:59:24;12.95;;;1.55;;
54871;SDS011;43914;57.680;11.982;2022-09-13T06:01:50;7.80;;;1.60;;
54871;SDS011;43914;57.680;11.982;2022-09-13T06:04:17;10.03;;;1.75;;
54871;SDS011;43914;57.680;11.982;2022-09-13T06:06:43;10.72;;;1.60;;
54871;SDS011;43914;57.680;11.982;2022-09-13T06:09:10;8.30;;;1.70;;
54871;SDS011;43914;57.680;11.982;2022-09-13T06:11:37;17.32;;;2.20;;
54871;SDS011;43914;57.680;11.982;2022-09-13T06:14:03;12.73;;;1.50;;
54871;SDS011;43914;57.680;11.982;2022-09-13T06:16:30;12.15;;;1.75;;
54871;SDS011;43914;57.680;11.982;2022-09-13T06:18:56;12.15;;;1.52;;
54871;SDS011;43914;57.680;11.982;2022-09-13T06:21:23;10.05;;;1.70;;
54871;SDS011;43914;57.680;11.982;2022-09-13T06:23:50;11.38;;;2.47;;
54871;SDS011;43914;57.680;11.982;2022-09-13T06:26:22;12.03;;;1.30;;
54871;SDS011;43914;57.680;11.982;2022-09-13T06:28:51;14.50;;;1.85;;
54871;SDS011;43914;57.680;11.982;2022-09-13T06:31:20;8.70;;;1.35;;
54871;SDS011;43914;57.680;11.982;2022-09-13T06:33:53;8.50;;;1.40;;
54871;SDS011;43914;57.680;11.982;2022-09-13T06:36:22;10.93;;;1.30;;
54871;SDS011;43914;57.680;11.982;2022-09-13T06:38:49;14.83;;;1.50;;
54871;SDS011;43914;57.680;11.982;2022-09-13T06:41:16;10.25;;;1.40;;
54871;SDS011;43914;57.680;11.982;2022-09-13T06:43:51;7.87;;;1.25;;
54871;SDS011;43914;57.680;11.982;2022-09-13T06:48:49;12.85;;;2.05;;
54871;SDS011;43914;57.680;11.982;2022-09-13T06:51:18;14.15;;;2.08;;
54871;SDS011;43914;57.680;11.982;2022-09-13T06:53:53;11.03;;;1.25;;
54871;SDS011;43914;57.680;11.982;2022-09-13T06:56:28;8.45;;;1.57;;
54871;SDS011;43914;57.680;11.982;2022-09-13T06:59:00;14.95;;;1.60;;
54871;SDS011;43914;57.680;11.982;2022-09-13T07:01:30;11.45;;;1.50;;
54871;SDS011;43914;57.680;11.982;2022-09-13T07:03:59;7.33;;;1.40;;
54871;SDS011;43914;57.680;11.982;2022-09-13T07:06:38;9.13;;;1.47;;
54871;SDS011;43914;57.680;11.982;2022-09-13T07:09:04;11.05;;;1.52;;
54871;SDS011;43914;57.680;11.982;2022-09-13T07:11:35;11.50;;;1.40;;
54871;SDS011;43914;57.680;11.982;2022-09-13T07:14:03;8.10;;;1.37;;
54871;SDS011;43914;57.680;11.982;2022-09-13T07:16:33;11.30;;;1.45;;
54871;SDS011;43914;57.680;11.982;2022-09-13T07:19:03;14.18;;;1.92;;
54871;SDS011;43914;57.680;11.982;2022-09-13T07:21:32;9.95;;;1.30;;
54871;SDS011;43914;57.680;11.982;2022-09-13T07:24:00;10.85;;;1.30;;
54871;SDS011;43914;57.680;11.982;2022-09-13T07:26:26;6.47;;;1.20;;
54871;SDS011;43914;57.680;11.982;2022-09-13T07:28:53;9.60;;;1.67;;
54871;SDS011;43914;57.680;11.982;2022-09-13T07:31:24;12.30;;;1.52;;
54871;SDS011;43914;57.680;11.982;2022-09-13T07:34:00;12.18;;;1.72;;
54871;SDS011;43914;57.680;11.982;2022-09-13T07:36:30;11.43;;;1.60;;
54871;SDS011;43914;57.680;11.982;2022-09-13T07:38:59;10.28;;;1.80;;
54871;SDS011;43914;57.680;11.982;2022-09-13T07:41:26;12.90;;;1.50;;
54871;SDS011;43914;57.680;11.982;2022-09-13T07:43:55;10.03;;;1.70;;
54871;SDS011;43914;57.680;11.982;2022-09-13T07:46:24;10.68;;;1.52;;
54871;SDS011;43914;57.680;11.982;2022-09-13T07:48:53;10.63;;;1.50;;
54871;SDS011;43914;57.680;11.982;2022-09-13T07:51:25;14.10;;;1.52;;
54871;SDS011;43914;57.680;11.982;2022-09-13T07:53:56;10.30;;;1.62;;
54871;SDS011;43914;57.680;11.982;2022-09-13T07:56:25;10.30;;;1.40;;
54871;SDS011;43914;57.680;11.982;2022-09-13T07:58:57;10.78;;;1.45;;
54871;SDS011;43914;57.680;11.982;2022-09-13T08:01:26;14.10;;;2.05;;
54871;SDS011;43914;57.680;11.982;2022-09-13T08:04:00;9.65;;;1.37;;
54871;SDS011;43914;57.680;11.982;2022-09-13T08:06:27;10.10;;;1.60;;
54871;SDS011;43914;57.680;11.982;2022-09-13T08:08:55;12.03;;;2.00;;
54871;SDS011;43914;57.680;11.982;2022-09-13T08:11:23;14.83;;;2.50;;
54871;SDS011;43914;57.680;11.982;2022-09-13T08:14:03;11.95;;;1.70;;
54871;SDS011;43914;57.680;11.982;2022-09-13T08:16:31;18.98;;;1.82;;
54871;SDS011;43914;57.680;11.982;2022-09-13T08:19:01;14.60;;;1.90;;
54871;SDS011;43914;57.680;11.982;2022-09-13T08:21:36;12.35;;;1.55;;
54871;SDS011;43914;57.680;11.982;2022-09-13T08:24:05;12.28;;;1.70;;
54871;SDS011;43914;57.680;11.982;2022-09-13T08:26:33;9.25;;;1.45;;
54871;SDS011;43914;57.680;11.982;2022-09-13T08:29:01;11.78;;;1.60;;
54871;SDS011;43914;57.680;11.982;2022-09-13T08:31:30;10.50;;;1.55;;
54871;SDS011;43914;57.680;11.982;2022-09-13T08:33:57;11.75;;;1.80;;
54871;SDS011;43914;57.680;11.982;2022-09-13T08:36:24;16.07;;;1.62;;
54871;SDS011;43914;57.680;11.982;2022-09-13T08:38:54;9.83;;;1.50;;
54871;SDS011;43914;57.680;11.982;2022-09-13T08:46:51;10.38;;;1.72;;
54871;SDS011;43914;57.680;11.982;2022-09-13T08:49:39;10.32;;;1.50;;
54871;SDS011;43914;57.680;11.982;2022-09-13T08:52:19;11.90;;;1.40;;
54871;SDS011;43914;57.680;11.982;2022-09-13T08:55:03;10.65;;;1.32;;
54871;SDS011;43914;57.680;11.982;2022-09-13T09:00:37;12.03;;;1.70;;
54871;SDS011;43914;57.680;11.982;2022-09-13T09:03:23;9.90;;;1.20;;
54871;SDS011;43914;57.680;11.982;2022-09-13T09:05:58;9.15;;;1.10;;
54871;SDS011;43914;57.680;11.982;2022-09-13T09:11:06;8.78;;;1.32;;
54871;SDS011;43914;57.680;11.982;2022-09-13T09:13:47;12.37;;;1.42;;
54871;SDS011;43914;57.680;11.982;2022-09-13T09:16:38;10.38;;;1.50;;
54871;SDS011;43914;57.680;11.982;2022-09-13T09:21:51;10.53;;;1.40;;
54871;SDS011;43914;57.680;11.982;2022-09-13T09:24:22;10.08;;;1.50;;
54871;SDS011;43914;57.680;11.982;2022-09-13T09:26:51;8.35;;;1.50;;
54871;SDS011;43914;57.680;11.982;2022-09-13T09:29:19;10.58;;;1.70;;
54871;SDS011;43914;57.680;11.982;2022-09-13T09:34:51;15.40;;;3.25;;
54871;SDS011;43914;57.680;11.982;2022-09-13T09:37:35;13.80;;;2.25;;
54871;SDS011;43914;57.680;11.982;2022-09-13T09:40:04;14.83;;;3.00;;
54871;SDS011;43914;57.680;11.982;2022-09-13T09:42:38;9.25;;;1.60;;
54871;SDS011;43914;57.680;11.982;2022-09-13T09:47:58;19.62;;;2.40;;
54871;SDS011;43914;57.680;11.982;2022-09-13T09:50:32;16.15;;;2.05;;
54871;SDS011;43914;57.680;11.982;2022-09-13T09:58:51;15.28;;;2.02;;
54871;SDS011;43914;57.680;11.982;2022-09-13T10:01:24;8.00;;;1.15;;
54871;SDS011;43914;57.680;11.982;2022-09-13T10:04:00;11.10;;;1.50;;
54871;SDS011;43914;57.680;11.982;2022-09-13T10:06:32;14.10;;;2.30;;
54871;SDS011;43914;57.680;11.982;2022-09-13T10:09:01;9.25;;;1.50;;
54871;SDS011;43914;57.680;11.982;2022-09-13T10:11:42;13.83;;;1.65;;
54871;SDS011;43914;57.680;11.982;2022-09-13T10:14:26;15.78;;;1.90;;
54871;SDS011;43914;57.680;11.982;2022-09-13T10:19:56;10.35;;;1.50;;
54871;SDS011;43914;57.680;11.982;2022-09-13T10:22:29;10.30;;;1.30;;
54871;SDS011;43914;57.680;11.982;2022-09-13T10:27:54;12.65;;;1.47;;
54871;SDS011;43914;57.680;11.982;2022-09-13T10:33:32;15.25;;;1.72;;
54871;SDS011;43914;57.680;11.982;2022-09-13T10:36:16;10.95;;;2.02;;
54871;SDS011;43914;57.680;11.982;2022-09-13T10:38:49;9.25;;;1.77;;
54871;SDS011;43914;57.680;11.982;2022-09-13T10:41:27;13.68;;;1.72;;
54871;SDS011;43914;57.680;11.982;2022-09-13T10:44:03;11.70;;;1.57;;
54871;SDS011;43914;57.680;11.982;2022-09-13T10:46:34;14.90;;;1.50;;
54871;SDS011;43914;57.680;11.982;2022-09-13T10:49:03;14.03;;;2.08;;
54871;SDS011;43914;57.680;11.982;2022-09-13T10:51:34;9.30;;;1.40;;
54871;SDS011;43914;57.680;11.982;2022-09-13T10:54:06;17.87;;;2.15;;
54871;SDS011;43914;57.680;11.982;2022-09-13T10:56:50;11.55;;;1.90;;
54871;SDS011;43914;57.680;11.982;2022-09-13T10:59:23;12.85;;;1.67;;
54871;SDS011;43914;57.680;11.982;2022-09-13T11:12:50;11.57;;;2.02;;
54871;SDS011;43914;57.680;11.982;2022-09-13T11:15:30;17.12;;;1.98;;
54871;SDS011;43914;57.680;11.982;2022-09-13T11:18:27;12.63;;;1.77;;
54871;SDS011;43914;57.680;11.982;2022-09-13T11:24:44;9.18;;;1.60;;
54871;SDS011;43914;57.680;11.982;2022-09-13T11:30:17;7.10;;;1.30;;
54871;SDS011;43914;57.680;11.982;2022-09-13T11:36:03;8.73;;;1.22;;
54871;SDS011;43914;57.680;11.982;2022-09-13T11:44:29;3.90;;;0.80;;
54871;SDS011;43914;57.680;11.982;2022-09-13T11:56:04;3.92;;;0.78;;
54871;SDS011;43914;57.680;11.982;2022-09-13T11:58:46;3.58;;;0.80;;
54871;SDS011;43914;57.680;11.982;2022-09-13T12:01:17;7.45;;;1.00;;
54871;SDS011;43914;57.680;11.982;2022-09-13T12:04:06;5.55;;;1.00;;
54871;SDS011;43914;57.680;11.982;2022-09-13T12:06:37;10.68;;;1.32;;
54871;SDS011;43914;57.680;11.982;2022-09-13T12:09:11;8.25;;;1.72;;
54871;SDS011;43914;57.680;11.982;2022-09-13T12:11:57;6.50;;;1.40;;
54871;SDS011;43914;57.680;11.982;2022-09-13T12:14:37;8.83;;;1.22;;
54871;SDS011;43914;57.680;11.982;2022-09-13T12:17:29;13.70;;;1.67;;
54871;SDS011;43914;57.680;11.982;2022-09-13T12:20:05;7.00;;;1.40;;
54871;SDS011;43914;57.680;11.982;2022-09-13T12:22:41;10.68;;;1.67;;
54871;SDS011;43914;57.680;11.982;2022-09-13T12:25:19;8.65;;;1.17;;
54871;SDS011;43914;57.680;11.982;2022-09-13T12:27:54;7.95;;;1.37;;
54871;SDS011;43914;57.680;11.982;2022-09-13T12:30:46;7.05;;;1.25;;
54871;SDS011;43914;57.680;11.982;2022-09-13T12:33:24;8.10;;;1.05;;
54871;SDS011;43914;57.680;11.982;2022-09-13T12:35:57;7.58;;;1.30;;
54871;SDS011;43914;57.680;11.982;2022-09-13T12:41:52;6.70;;;1.00;;
54871;SDS011;43914;57.680;11.982;2022-09-13T12:50:42;5.47;;;0.98;;
54871;SDS011;43914;57.680;11.982;2022-09-13T13:02:29;7.78;;;1.00;;
54871;SDS011;43914;57.680;11.982;2022-09-13T13:05:00;4.37;;;0.95;;
54871;SDS011;43914;57.680;11.982;2022-09-13T13:07:51;5.55;;;1.00;;
54871;SDS011;43914;57.680;11.982;2022-09-13T13:10:26;7.42;;;1.00;;
54871;SDS011;43914;57.680;11.982;2022-09-13T13:16:02;6.17;;;1.55;;
54871;SDS011;43914;57.680;11.982;2022-09-13T13:18:47;3.85;;;0.72;;
54871;SDS011;43914;57.680;11.982;2022-09-13T13:21:24;6.33;;;1.00;;
54871;SDS011;43914;57.680;11.982;2022-09-13T13:26:48;8.50;;;1.00;;
54871;SDS011;43914;57.680;11.982;2022-09-13T13:29:32;5.55;;;0.90;;
54871;SDS011;43914;57.680;11.982;2022-09-13T13:40:09;5.28;;;0.90;;
54871;SDS011;43914;57.680;11.982;2022-09-13T13:42:38;9.28;;;1.20;;
54871;SDS011;43914;57.680;11.982;2022-09-13T13:45:15;4.47;;;0.93;;
54871;SDS011;43914;57.680;11.982;2022-09-13T13:48:09;3.92;;;0.80;;
54871;SDS011;43914;57.680;11.982;2022-09-13T13:51:11;5.60;;;0.80;;
54871;SDS011;43914;57.680;11.982;2022-09-13T13:53:40;7.05;;;1.10;;
54871;SDS011;43914;57.680;11.982;2022-09-13T13:56:16;5.45;;;0.88;;
54871;SDS011;43914;57.680;11.982;2022-09-13T13:58:56;7.17;;;1.20;;
54871;SDS011;43914;57.680;11.982;2022-09-13T14:01:43;8.73;;;1.15;;
54871;SDS011;43914;57.680;11.982;2022-09-13T14:10:10;9.85;;;1.30;;
54871;SDS011;43914;57.680;11.982;2022-09-13T14:15:49;9.83;;;1.37;;
54871;SDS011;43914;57.680;11.982;2022-09-13T14:21:27;9.30;;;1.40;;
54871;SDS011;43914;57.680;11.982;2022-09-13T14:26:51;12.60;;;2.00;;
54871;SDS011;43914;57.680;11.982;2022-09-13T14:29:23;12.15;;;2.30;;
54871;SDS011;43914;57.680;11.982;2022-09-13T14:31:51;13.25;;;2.30;;
54871;SDS011;43914;57.680;11.982;2022-09-13T14:34:26;17.02;;;2.58;;
54871;SDS011;43914;57.680;11.982;2022-09-13T14:36:58;17.67;;;2.40;;
54871;SDS011;43914;57.680;11.982;2022-09-13T14:39:27;13.30;;;2.40;;
54871;SDS011;43914;57.680;11.982;2022-09-13T14:42:10;17.32;;;2.65;;
54871;SDS011;43914;57.680;11.982;2022-09-13T14:44:37;16.42;;;2.27;;
54871;SDS011;43914;57.680;11.982;2022-09-13T14:49:50;16.40;;;2.22;;
54871;SDS011;43914;57.680;11.982;2022-09-13T14:52:34;14.18;;;1.95;;
54871;SDS011;43914;57.680;11.982;2022-09-13T14:55:07;18.05;;;1.92;;
54871;SDS011;43914;57.680;11.982;2022-09-13T14:57:41;12.58;;;2.00;;
54871;SDS011;43914;57.680;11.982;2022-09-13T15:05:18;13.35;;;2.22;;
54871;SDS011;43914;57.680;11.982;2022-09-13T15:07:47;14.33;;;2.50;;
54871;SDS011;43914;57.680;11.982;2022-09-13T15:23:35;18.15;;;2.90;;
54871;SDS011;43914;57.680;11.982;2022-09-13T15:31:26;19.77;;;2.80;;
54871;SDS011;43914;57.680;11.982;2022-09-13T15:39:48;24.70;;;2.98;;
54871;SDS011;43914;57.680;11.982;2022-09-13T15:42:34;18.90;;;3.20;;
54871;SDS011;43914;57.680;11.982;2022-09-13T15:45:01;17.37;;;3.12;;
54871;SDS011;43914;57.680;11.982;2022-09-13T15:47:27;20.50;;;2.98;;
54871;SDS011;43914;57.680;11.982;2022-09-13T15:49:53;21.93;;;3.08;;
54871;SDS011;43914;57.680;11.982;2022-09-13T15:52:19;25.48;;;3.45;;
54871;SDS011;43914;57.680;11.982;2022-09-13T15:54:48;17.32;;;3.02;;
54871;SDS011;43914;57.680;11.982;2022-09-13T15:57:20;23.10;;;3.20;;
54871;SDS011;43914;57.680;11.982;2022-09-13T15:59:52;17.98;;;3.12;;
54871;SDS011;43914;57.680;11.982;2022-09-13T16:02:23;22.07;;;3.62;;
54871;SDS011;43914;57.680;11.982;2022-09-13T16:04:53;25.52;;;4.03;;
54871;SDS011;43914;57.680;11.982;2022-09-13T16:07:25;18.05;;;2.77;;
54871;SDS011;43914;57.680;11.982;2022-09-13T16:09:52;19.60;;;2.87;;
54871;SDS011;43914;57.680;11.982;2022-09-13T16:12:18;22.40;;;3.35;;
54871;SDS011;43914;57.680;11.982;2022-09-13T16:14:47;19.82;;;2.75;;
54871;SDS011;43914;57.680;11.982;2022-09-13T16:17:19;18.32;;;3.15;;
54871;SDS011;43914;57.680;11.982;2022-09-13T16:19:48;19.77;;;3.00;;
54871;SDS011;43914;57.680;11.982;2022-09-13T16:22:18;22.05;;;2.67;;
54871;SDS011;43914;57.680;11.982;2022-09-13T16:24:46;17.15;;;2.42;;
54871;SDS011;43914;57.680;11.982;2022-09-13T16:27:16;18.70;;;3.33;;
54871;SDS011;43914;57.680;11.982;2022-09-13T16:29:49;14.38;;;2.45;;
54871;SDS011;43914;57.680;11.982;2022-09-13T16:32:19;17.20;;;2.60;;
54871;SDS011;43914;57.680;11.982;2022-09-13T16:34:46;18.42;;;2.65;;
54871;SDS011;43914;57.680;11.982;2022-09-13T16:37:13;17.70;;;2.85;;
54871;SDS011;43914;57.680;11.982;2022-09-13T16:39:42;19.02;;;2.58;;
54871;SDS011;43914;57.680;11.982;2022-09-13T16:42:13;16.97;;;2.80;;
54871;SDS011;43914;57.680;11.982;2022-09-13T16:44:41;20.92;;;2.72;;
54871;SDS011;43914;57.680;11.982;2022-09-13T16:47:08;20.02;;;2.87;;
54871;SDS011;43914;57.680;11.982;2022-09-13T16:49:37;18.07;;;2.77;;
54871;SDS011;43914;57.680;11.982;2022-09-13T16:52:04;21.97;;;2.80;;
54871;SDS011;43914;57.680;11.982;2022-09-13T16:54:31;21.95;;;2.85;;
54871;SDS011;43914;57.680;11.982;2022-09-13T16:56:59;13.08;;;2.12;;
54871;SDS011;43914;57.680;11.982;2022-09-13T16:59:33;18.98;;;2.98;;
54871;SDS011;43914;57.680;11.982;2022-09-13T17:01:57;12.88;;;2.35;;
54871;SDS011;43914;57.680;11.982;2022-09-13T17:04:24;22.13;;;2.83;;
54871;SDS011;43914;57.680;11.982;2022-09-13T17:06:50;14.33;;;2.72;;
54871;SDS011;43914;57.680;11.982;2022-09-13T17:09:17;16.75;;;3.02;;
54871;SDS011;43914;57.680;11.982;2022-09-13T17:11:45;15.72;;;2.80;;
54871;SDS011;43914;57.680;11.982;2022-09-13T17:14:14;20.12;;;2.72;;
54871;SDS011;43914;57.680;11.982;2022-09-13T17:16:46;17.05;;;2.45;;
54871;SDS011;43914;57.680;11.982;2022-09-13T17:19:20;12.50;;;2.33;;
54871;SDS011;43914;57.680;11.982;2022-09-13T17:21:55;19.73;;;2.55;;
54871;SDS011;43914;57.680;11.982;2022-09-13T17:24:22;16.73;;;2.67;;
54871;SDS011;43914;57.680;11.982;2022-09-13T17:26:49;19.82;;;3.05;;
54871;SDS011;43914;57.680;11.982;2022-09-13T17:29:16;16.65;;;2.55;;
54871;SDS011;43914;57.680;11.982;2022-09-13T17:31:42;16.10;;;2.42;;
54871;SDS011;43914;57.680;11.982;2022-09-13T17:34:09;13.83;;;2.55;;
54871;SDS011;43914;57.680;11.982;2022-09-13T17:36:38;16.20;;;2.60;;
54871;SDS011;43914;57.680;11.982;2022-09-13T17:39:05;16.85;;;2.72;;
54871;SDS011;43914;57.680;11.982;2022-09-13T17:41:32;18.60;;;2.90;;
54871;SDS011;43914;57.680;11.982;2022-09-13T17:44:00;18.37;;;2.50;;
54871;SDS011;43914;57.680;11.982;2022-09-13T17:46:27;21.97;;;2.90;;
54871;SDS011;43914;57.680;11.982;2022-09-13T17:48:55;16.15;;;2.77;;
54871;SDS011;43914;57.680;11.982;2022-09-13T17:51:29;15.88;;;2.40;;
54871;SDS011;43914;57.680;11.982;2022-09-13T17:53:58;15.43;;;3.12;;
54871;SDS011;43914;57.680;11.982;2022-09-13T17:56:35;22.42;;;3.10;;
54871;SDS011;43914;57.680;11.982;2022-09-13T17:59:08;14.43;;;2.75;;
54871;SDS011;43914;57.680;11.982;2022-09-13T18:01:40;14.55;;;2.45;;
54871;SDS011;43914;57.680;11.982;2022-09-13T18:04:13;17.77;;;2.80;;
54871;SDS011;43914;57.680;11.982;2022-09-13T18:06:40;13.80;;;2.42;;
54871;SDS011;43914;57.680;11.982;2022-09-13T18:09:08;17.52;;;2.65;;
54871;SDS011;43914;57.680;11.982;2022-09-13T18:11:35;16.82;;;2.65;;
54871;SDS011;43914;57.680;11.982;2022-09-13T18:14:02;17.15;;;2.72;;
54871;SDS011;43914;57.680;11.982;2022-09-13T18:16:30;18.65;;;2.62;;